createdAt,value
2019-01-25T05:43:22.441Z,-4.50
2019-01-25T05:45:51.628Z,-4.40
2019-01-25T05:48:22.291Z,-4.50
2019-01-25T05:50:53.007Z,-4.50
2019-01-25T05:53:22.490Z,-4.40
2019-01-25T05:55:51.755Z,-4.50
2019-01-25T05:58:20.982Z,-4.50
2019-01-25T06:00:50.263Z,-4.40
2019-01-25T06:03:19.477Z,-4.40
2019-01-25T06:05:48.662Z,-4.40
2019-01-25T06:08:30.338Z,-4.40
2019-01-25T06:11:01.682Z,-4.30
2019-01-25T06:13:31.044Z,-4.30
2019-01-25T06:16:00.247Z,-4.30
2019-01-25T06:18:30.003Z,-4.30
2019-01-25T06:21:00.226Z,-4.30
2019-01-25T06:23:29.415Z,-4.30
2019-01-25T06:25:59.904Z,-4.30
2019-01-25T06:28:29.347Z,-4.30
2019-01-25T06:30:58.550Z,-4.30
2019-01-25T06:33:27.874Z,-4.30
2019-01-25T06:35:57.136Z,-4.30
2019-01-25T06:38:26.457Z,-4.30
2019-01-25T06:40:55.769Z,-4.30
2019-01-25T06:43:25.099Z,-4.30
2019-01-25T06:45:54.406Z,-4.30
2019-01-25T06:48:23.615Z,-4.30
2019-01-25T06:50:54.127Z,-4.30
2019-01-25T06:53:23.446Z,-4.30
2019-01-25T06:55:52.730Z,-4.30
2019-01-25T06:58:50.225Z,-4.30
2019-01-25T07:01:53.507Z,-4.30
2019-01-25T07:04:22.792Z,-4.20
2019-01-25T07:06:53.496Z,-4.20
2019-01-25T07:09:22.720Z,-4.20
2019-01-25T07:11:52.109Z,-4.20
2019-01-25T07:14:21.730Z,-4.20
2019-01-25T07:16:51.067Z,-4.20
2019-01-25T07:19:20.336Z,-4.20
2019-01-25T07:21:49.599Z,-4.20
2019-01-25T07:24:18.884Z,-4.10
2019-01-25T07:26:48.112Z,-4.10
2019-01-25T07:29:17.362Z,-4.10
2019-01-25T07:31:46.820Z,-4.00
2019-01-25T07:34:16.088Z,-4.00
2019-01-25T07:36:45.401Z,-4.00
2019-01-25T07:39:24.694Z,-4.00
2019-01-25T07:41:59.239Z,-4.00
2019-01-25T07:44:25.095Z,-4.10
2019-01-25T07:46:54.440Z,-4.00
2019-01-25T07:49:31.205Z,-4.00
2019-01-25T07:52:07.752Z,-4.00
2019-01-25T07:54:37.240Z,-4.00
2019-01-25T07:57:06.541Z,-4.00
2019-01-25T07:59:35.745Z,-3.90
2019-01-25T08:02:05.414Z,-3.90
2019-01-25T08:04:36.151Z,-3.90
2019-01-25T08:07:05.590Z,-3.90
2019-01-25T08:09:34.884Z,-3.90
2019-01-25T08:12:07.576Z,-4.00
2019-01-25T08:14:35.669Z,-3.90
2019-01-25T08:17:05.050Z,-4.00
2019-01-25T08:19:34.365Z,-4.00
2019-01-25T08:22:03.649Z,-3.90
2019-01-25T08:24:34.395Z,-3.90
2019-01-25T08:27:04.165Z,-4.00
2019-01-25T08:29:33.541Z,-3.90
2019-01-25T08:32:02.869Z,-4.00
2019-01-25T08:34:32.230Z,-3.90
2019-01-25T08:37:01.612Z,-3.90
2019-01-25T08:39:30.949Z,-3.90
2019-01-25T08:42:00.206Z,-3.90
2019-01-25T08:44:29.505Z,-3.80
2019-01-25T08:46:59.009Z,-3.80
2019-01-25T08:49:28.289Z,-3.80
2019-01-25T08:51:58.906Z,-3.70
2019-01-25T08:54:28.143Z,-3.70
2019-01-25T08:56:57.504Z,-3.60
2019-01-25T08:59:26.721Z,-3.60
2019-01-25T09:01:56.231Z,-3.60
2019-01-25T09:04:25.554Z,-3.60
2019-01-25T09:06:54.842Z,-3.70
2019-01-25T09:09:24.147Z,-3.60
2019-01-25T09:11:53.434Z,-3.50
2019-01-25T09:14:22.755Z,-3.40
2019-01-25T09:16:52.055Z,-3.40
2019-01-25T09:19:21.407Z,-3.40
2019-01-25T09:21:50.606Z,-3.30
2019-01-25T09:24:19.905Z,-3.30
2019-01-25T09:26:49.117Z,-3.20
2019-01-25T09:29:18.437Z,-3.20
2019-01-25T09:31:47.725Z,-3.20
2019-01-25T09:34:36.124Z,-3.10
2019-01-25T09:37:05.564Z,-3.10
2019-01-25T09:39:34.815Z,-3.10
2019-01-25T09:42:04.023Z,-3.10
2019-01-25T09:44:33.291Z,-3.00
2019-01-25T09:47:02.572Z,-3.00
2019-01-25T09:49:31.918Z,-3.00
2019-01-25T09:52:01.436Z,-2.90
2019-01-25T09:54:30.639Z,-2.70
2019-01-25T09:56:59.977Z,-2.70
2019-01-25T09:59:29.227Z,-2.60
2019-01-25T10:01:58.735Z,-2.50
2019-01-25T10:04:28.034Z,-2.40
2019-01-25T10:06:57.397Z,-2.20
2019-01-25T10:09:26.683Z,-2.20
2019-01-25T10:11:55.922Z,-2.20
2019-01-25T10:14:25.111Z,-2.10
2019-01-25T10:16:54.372Z,-2.10
2019-01-25T10:19:23.549Z,-2.00
2019-01-25T10:21:52.841Z,-2.10
2019-01-25T10:24:22.092Z,-2.20
2019-01-25T10:26:51.384Z,-2.20
2019-01-25T10:29:20.630Z,-2.20
2019-01-25T10:31:49.939Z,-2.10
2019-01-25T10:34:19.130Z,-2.10
2019-01-25T10:36:48.326Z,-2.10
2019-01-25T10:39:17.536Z,-2.00
2019-01-25T10:41:46.806Z,-1.90
2019-01-25T10:44:15.992Z,-1.80
2019-01-25T10:46:45.207Z,-1.70
2019-01-25T10:49:14.370Z,-1.70
2019-01-25T10:51:43.969Z,-1.80
2019-01-25T10:54:13.361Z,-1.80
2019-01-25T10:56:42.738Z,-1.90
2019-01-25T10:59:11.944Z,-1.90
2019-01-25T11:01:41.147Z,-1.80
2019-01-25T11:04:11.741Z,-1.90
2019-01-25T11:06:41.471Z,-1.80
2019-01-25T11:09:10.754Z,-1.90
2019-01-25T11:11:40.298Z,-2.10
2019-01-25T11:14:10.682Z,-2.20
2019-01-25T11:16:40.003Z,-2.40
2019-01-25T11:19:09.329Z,-2.40
2019-01-25T11:21:38.770Z,-2.50
2019-01-25T11:24:08.053Z,-2.40
2019-01-25T11:26:37.906Z,-2.30
2019-01-25T11:29:07.175Z,-2.30
2019-01-25T11:31:36.399Z,-2.40
2019-01-25T11:34:05.603Z,-2.40
2019-01-25T11:36:34.947Z,-2.50
2019-01-25T11:39:07.480Z,-2.80
2019-01-25T11:41:36.778Z,-2.70
2019-01-25T11:44:06.009Z,-2.80
2019-01-25T11:46:35.270Z,-2.80
2019-01-25T11:49:04.676Z,-2.80
2019-01-25T11:51:33.995Z,-2.70
2019-01-25T11:54:03.237Z,-2.70
2019-01-25T11:56:32.583Z,-2.60
2019-01-25T11:59:01.880Z,-2.40
2019-01-25T12:01:31.159Z,-2.30
2019-01-25T12:04:00.355Z,-2.30
2019-01-25T12:06:29.639Z,-2.40
2019-01-25T12:08:58.924Z,-2.60
2019-01-25T12:11:28.547Z,-2.60
2019-01-25T12:13:57.760Z,-2.60
2019-01-25T12:16:26.980Z,-2.60
2019-01-25T12:18:56.155Z,-2.70
2019-01-25T12:21:25.347Z,-2.70
2019-01-25T12:23:54.598Z,-2.60
2019-01-25T12:26:23.881Z,-2.60
2019-01-25T12:28:53.055Z,-2.60
2019-01-25T12:31:22.297Z,-2.60
2019-01-25T12:33:51.574Z,-2.60
2019-01-25T12:36:20.889Z,-2.60
2019-01-25T12:38:50.066Z,-2.70
2019-01-25T12:41:19.607Z,-2.60
2019-01-25T12:43:48.871Z,-2.60
2019-01-25T12:46:18.083Z,-2.30
2019-01-25T12:48:47.365Z,-2.10
2019-01-25T12:51:27.755Z,-1.90
2019-01-25T12:53:57.056Z,-1.80
2019-01-25T12:56:26.344Z,-1.80
2019-01-25T12:58:57.103Z,-1.60
2019-01-25T13:01:26.599Z,-1.60
2019-01-25T13:03:55.779Z,-1.60
2019-01-25T13:06:25.043Z,-1.60
2019-01-25T13:08:54.352Z,-1.70
2019-01-25T13:11:23.603Z,-1.70
2019-01-25T13:13:52.903Z,-1.70
2019-01-25T13:16:22.194Z,-1.50
2019-01-25T13:18:51.399Z,-1.50
2019-01-25T13:21:20.687Z,-1.40
2019-01-25T13:23:49.983Z,-1.50
2019-01-25T13:26:19.399Z,-1.60
2019-01-25T13:28:48.793Z,-1.40
2019-01-25T13:31:18.392Z,-1.40
2019-01-25T13:33:47.786Z,-1.50
2019-01-25T13:36:17.110Z,-1.40
2019-01-25T13:38:46.482Z,-1.40
2019-01-25T13:41:15.684Z,-1.40
2019-01-25T13:43:44.967Z,-1.20
2019-01-25T13:46:14.192Z,-1.20
2019-01-25T13:48:43.505Z,-1.40
2019-01-25T13:51:12.901Z,-1.60
2019-01-25T13:53:42.191Z,-1.70
2019-01-25T13:56:11.619Z,-1.60
2019-01-25T13:58:40.891Z,-1.70
2019-01-25T14:01:10.266Z,-1.90
2019-01-25T14:03:39.542Z,-1.80
2019-01-25T14:06:08.872Z,-1.60
2019-01-25T14:08:38.574Z,-1.70
2019-01-25T14:11:07.919Z,-1.80
2019-01-25T14:13:37.199Z,-1.70
2019-01-25T14:16:06.694Z,-1.70
2019-01-25T14:18:35.939Z,-1.90
2019-01-25T14:21:05.757Z,-2.00
2019-01-25T14:23:35.109Z,-2.00
2019-01-25T14:26:05.052Z,-2.20
2019-01-25T14:28:35.948Z,-2.10
2019-01-25T14:31:05.824Z,-2.20
2019-01-25T14:33:35.185Z,-2.30
2019-01-25T14:36:05.091Z,-2.40
2019-01-25T14:38:34.367Z,-2.40
2019-01-25T14:41:03.698Z,-2.50
2019-01-25T14:43:32.868Z,-2.50
2019-01-25T14:46:02.150Z,-2.50
2019-01-25T14:48:31.379Z,-2.60
2019-01-25T14:51:02.279Z,-2.60
2019-01-25T14:53:31.530Z,-2.60
2019-01-25T14:56:00.787Z,-2.70
2019-01-25T14:58:30.175Z,-2.80
2019-01-25T15:00:59.485Z,-2.70
2019-01-25T15:03:28.990Z,-2.70
2019-01-25T15:05:58.352Z,-2.70
2019-01-25T15:08:27.609Z,-2.80
2019-01-25T15:10:56.905Z,-2.80
2019-01-25T15:13:26.164Z,-2.90
2019-01-25T15:15:55.434Z,-3.00
2019-01-25T15:18:24.758Z,-3.10
2019-01-25T15:20:54.042Z,-3.20
2019-01-25T15:23:23.226Z,-3.20
2019-01-25T15:25:52.564Z,-3.40
2019-01-25T15:28:21.833Z,-3.40
2019-01-25T15:30:51.145Z,-3.50
2019-01-25T15:33:20.431Z,-3.50
2019-01-25T15:35:49.779Z,-3.50
2019-01-25T15:38:19.072Z,-3.40
2019-01-25T15:40:48.297Z,-3.40
2019-01-25T15:43:17.709Z,-3.40
2019-01-25T15:45:47.418Z,-3.50
2019-01-25T15:48:17.115Z,-3.50
2019-01-25T15:50:46.833Z,-3.50
2019-01-25T15:53:16.230Z,-3.50
2019-01-25T15:55:45.673Z,-3.40
2019-01-25T15:58:16.582Z,-3.40
2019-01-25T16:00:46.979Z,-3.40
2019-01-25T16:03:17.372Z,-3.40
2019-01-25T16:05:50.521Z,-3.40
2019-01-25T16:08:19.909Z,-3.40
2019-01-25T16:10:49.341Z,-3.50
2019-01-25T16:13:18.746Z,-3.50
2019-01-25T16:15:48.139Z,-3.50
2019-01-25T16:18:17.538Z,-3.40
2019-01-25T16:20:47.138Z,-3.40
2019-01-25T16:23:16.512Z,-3.40
2019-01-25T16:25:45.764Z,-3.40
2019-01-25T16:28:14.986Z,-3.40
2019-01-25T16:30:44.237Z,-3.30
2019-01-25T16:33:13.556Z,-3.30
2019-01-25T16:35:42.908Z,-3.40
2019-01-25T16:38:12.346Z,-3.40
2019-01-25T16:40:41.618Z,-3.30
2019-01-25T16:43:12.609Z,-3.30
2019-01-25T16:45:43.967Z,-3.30
2019-01-25T16:48:13.817Z,-3.30
2019-01-25T16:50:44.037Z,-3.30
2019-01-25T16:53:15.168Z,-3.20
2019-01-25T16:55:44.863Z,-3.20
2019-01-25T16:58:14.560Z,-3.20
2019-01-25T17:00:51.186Z,-3.20
2019-01-25T17:03:21.065Z,-3.20
2019-01-25T17:05:50.893Z,-3.20
2019-01-25T17:08:20.255Z,-3.10
2019-01-25T17:10:49.681Z,-3.10
2019-01-25T17:13:19.040Z,-3.10
2019-01-25T17:15:48.314Z,-3.10
2019-01-25T17:18:17.594Z,-3.20
2019-01-25T17:20:46.844Z,-3.20
2019-01-25T17:23:16.195Z,-3.20
2019-01-25T17:25:45.503Z,-3.20
2019-01-25T17:28:15.106Z,-3.20
2019-01-25T17:30:44.539Z,-3.20
2019-01-25T17:33:13.801Z,-3.20
2019-01-25T17:35:43.133Z,-3.20
2019-01-25T17:38:12.445Z,-3.20
2019-01-25T17:40:46.722Z,-3.20
2019-01-25T17:43:16.009Z,-3.20
2019-01-25T17:45:46.879Z,-3.20
2019-01-25T17:48:16.220Z,-3.10
2019-01-25T17:50:45.770Z,-3.10
2019-01-25T17:53:15.124Z,-3.10
2019-01-25T17:55:44.443Z,-3.10
2019-01-25T17:58:13.848Z,-3.10
2019-01-25T18:00:47.597Z,-3.10
2019-01-25T18:03:16.917Z,-3.10
2019-01-25T18:05:47.526Z,-3.00
2019-01-25T18:08:17.057Z,-3.00
2019-01-25T18:10:46.349Z,-3.00
2019-01-25T18:13:15.663Z,-3.00
2019-01-25T18:15:45.033Z,-3.00
2019-01-25T18:18:14.347Z,-3.00
2019-01-25T18:20:43.842Z,-3.00
2019-01-25T18:23:13.077Z,-3.00
2019-01-25T18:26:18.624Z,-3.00
2019-01-25T18:29:13.254Z,-3.00
2019-01-25T18:31:42.804Z,-3.00
2019-01-25T18:34:12.043Z,-2.90
2019-01-25T18:36:41.390Z,-2.90
2019-01-25T18:39:10.790Z,-2.90
2019-01-25T18:41:40.154Z,-2.80
2019-01-25T18:44:09.514Z,-2.80
2019-01-25T18:46:38.848Z,-2.80
2019-01-25T18:49:08.190Z,-2.80
2019-01-25T18:51:39.584Z,-2.80
2019-01-25T18:54:08.968Z,-2.80
2019-01-25T18:56:38.676Z,-2.70
2019-01-25T18:59:08.071Z,-2.70
2019-01-25T19:01:37.406Z,-2.70
2019-01-25T19:04:06.792Z,-2.70
2019-01-25T19:06:36.085Z,-2.70
2019-01-25T19:09:08.233Z,-2.60
2019-01-25T19:11:37.534Z,-2.60
2019-01-25T19:14:06.860Z,-2.60
2019-01-25T19:16:36.286Z,-2.60
2019-01-25T19:19:05.668Z,-2.60
2019-01-25T19:21:35.005Z,-2.60
2019-01-25T19:24:04.816Z,-2.60
2019-01-25T19:26:34.080Z,-2.50
2019-01-25T19:29:03.368Z,-2.60
2019-01-25T19:31:32.669Z,-2.60
2019-01-25T19:34:02.059Z,-2.60
2019-01-25T19:36:31.405Z,-2.60
2019-01-25T19:39:00.786Z,-2.60
2019-01-25T19:41:31.129Z,-2.60
2019-01-25T19:44:00.572Z,-2.60
2019-01-25T19:46:29.865Z,-2.60
2019-01-25T19:48:59.171Z,-2.60
2019-01-25T19:51:28.642Z,-2.60
2019-01-25T19:53:59.437Z,-2.70
2019-01-25T19:56:28.718Z,-2.60
2019-01-25T19:58:57.948Z,-2.60
2019-01-25T20:01:27.226Z,-2.70
2019-01-25T20:03:56.523Z,-2.60
2019-01-25T20:06:25.846Z,-2.60
2019-01-25T20:08:55.132Z,-2.60
2019-01-25T20:11:24.443Z,-2.70
2019-01-25T20:13:53.808Z,-2.70
2019-01-25T20:16:23.241Z,-2.70
2019-01-25T20:18:52.507Z,-2.70
2019-01-25T20:21:22.175Z,-2.70
2019-01-25T20:23:51.879Z,-2.70
2019-01-25T20:26:21.413Z,-2.70
2019-01-25T20:28:50.724Z,-2.70
2019-01-25T20:31:19.968Z,-2.70
2019-01-25T20:33:49.372Z,-2.70
2019-01-25T20:36:18.929Z,-2.70
2019-01-25T20:38:48.133Z,-2.80
2019-01-25T20:41:17.669Z,-2.80
2019-01-25T20:43:47.039Z,-2.80
2019-01-25T20:46:16.307Z,-2.80
2019-01-25T20:48:45.567Z,-2.80
2019-01-25T20:51:15.206Z,-2.80
2019-01-25T20:53:44.590Z,-2.80
2019-01-25T20:56:14.176Z,-2.90
2019-01-25T20:58:43.417Z,-2.90
2019-01-25T21:01:14.155Z,-3.00
2019-01-25T21:03:43.514Z,-3.10
2019-01-25T21:06:13.026Z,-3.30
2019-01-25T21:08:42.291Z,-3.40
2019-01-25T21:11:11.559Z,-3.50
2019-01-25T21:13:41.123Z,-3.50
2019-01-25T21:16:13.393Z,-3.60
2019-01-25T21:18:44.189Z,-3.60
2019-01-25T21:21:13.836Z,-3.50
2019-01-25T21:23:43.150Z,-3.50
2019-01-25T21:26:12.502Z,-3.60
2019-01-25T21:28:41.911Z,-3.60
2019-01-25T21:31:11.376Z,-3.70
2019-01-25T21:33:40.665Z,-3.80
2019-01-25T21:36:10.086Z,-3.90
2019-01-25T21:38:39.376Z,-3.90
2019-01-25T21:41:08.719Z,-3.90
2019-01-25T21:43:37.944Z,-4.00
2019-01-25T21:46:07.274Z,-4.00
2019-01-25T21:48:36.571Z,-4.00
2019-01-25T21:51:07.697Z,-4.00
2019-01-25T21:53:36.908Z,-4.00
2019-01-25T21:56:06.233Z,-4.00
2019-01-25T21:58:35.493Z,-4.00
2019-01-25T22:01:05.182Z,-3.90
2019-01-25T22:03:34.585Z,-3.90
2019-01-25T22:06:03.917Z,-3.90
2019-01-25T22:08:33.371Z,-3.90
2019-01-25T22:11:02.748Z,-3.90
2019-01-25T22:13:32.277Z,-4.00
2019-01-25T22:16:01.579Z,-4.00
2019-01-25T22:18:30.897Z,-4.00
2019-01-25T22:21:00.210Z,-4.10
2019-01-25T22:23:29.479Z,-4.00
2019-01-25T22:26:00.415Z,-4.10
2019-01-25T22:28:29.994Z,-4.10
